sensor_id;sensor_type;location;lat;lon;timestamp;pressure;altitude;pressure_sealevel;temperature;humidity
40592;BME280;26301;42.832;23.918;2022-09-12T00:02:02;92999.44;;;14.44;97.99
40592;BME280;26301;42.832;23.918;2022-09-12T00:04:28;92976.31;;;14.27;97.90
40592;BME280;26301;42.832;23.918;2022-09-12T00:06:54;92998.91;;;14.37;97.47
40592;BME280;26301;42.832;23.918;2022-09-12T00:09:22;93003.34;;;14.26;97.16
40592;BME280;26301;42.832;23.918;2022-09-12T00:11:53;93010.88;;;14.12;97.63
40592;BME280;26301;42.832;23.918;2022-09-12T00:14:20;93000.72;;;13.95;97.77
40592;BME280;26301;42.832;23.918;2022-09-12T00:16:46;92989.81;;;13.78;97.88
40592;BME280;26301;42.832;23.918;2022-09-12T00:19:12;92990.81;;;13.62;98.46
40592;BME280;26301;42.832;23.918;2022-09-12T00:21:38;93002.22;;;13.56;98.90
40592;BME280;26301;42.832;23.918;2022-09-12T00:24:05;92989.22;;;13.40;100.00
40592;BME280;26301;42.832;23.918;2022-09-12T00:26:31;92997.00;;;13.45;100.00
40592;BME280;26301;42.832;23.918;2022-09-12T00:28:58;93010.50;;;13.53;100.00
40592;BME280;26301;42.832;23.918;2022-09-12T00:31:25;92981.19;;;13.42;100.00
40592;BME280;26301;42.832;23.918;2022-09-12T00:33:54;92998.31;;;13.53;100.00
40592;BME280;26301;42.832;23.918;2022-09-12T00:36:23;92990.53;;;13.48;100.00
40592;BME280;26301;42.832;23.918;2022-09-12T00:38:49;92982.47;;;13.49;100.00
40592;BME280;26301;42.832;23.918;2022-09-12T00:41:19;92995.47;;;13.60;100.00
40592;BME280;26301;42.832;23.918;2022-09-12T00:43:53;93001.72;;;13.64;100.00
40592;BME280;26301;42.832;23.918;2022-09-12T00:46:36;93005.59;;;13.61;99.79
40592;BME280;26301;42.832;23.918;2022-09-12T00:51:45;92947.88;;;13.23;100.00
40592;BME280;26301;42.832;23.918;2022-09-12T00:54:17;93009.25;;;13.65;100.00
40592;BME280;26301;42.832;23.918;2022-09-12T00:56:45;92999.34;;;13.52;100.00
40592;BME280;26301;42.832;23.918;2022-09-12T00:59:18;92994.41;;;13.45;100.00
40592;BME280;26301;42.832;23.918;2022-09-12T01:01:47;93004.78;;;13.40;100.00
40592;BME280;26301;42.832;23.918;2022-09-12T01:04:14;93007.63;;;13.44;100.00
40592;BME280;26301;42.832;23.918;2022-09-12T01:06:42;93001.44;;;13.45;100.00
40592;BME280;26301;42.832;23.918;2022-09-12T01:09:14;92989.19;;;13.35;100.00
40592;BME280;26301;42.832;23.918;2022-09-12T01:11:41;92985.84;;;13.40;100.00
40592;BME280;26301;42.832;23.918;2022-09-12T01:14:10;92996.25;;;13.55;100.00
40592;BME280;26301;42.832;23.918;2022-09-12T01:16:37;92996.50;;;13.59;100.00
40592;BME280;26301;42.832;23.918;2022-09-12T01:31:10;92970.50;;;13.38;100.00
40592;BME280;26301;42.832;23.918;2022-09-12T01:45:08;92976.47;;;13.29;98.16
40592;BME280;26301;42.832;23.918;2022-09-12T01:48:21;92993.56;;;13.30;98.77
40592;BME280;26301;42.832;23.918;2022-09-12T01:53:28;92958.72;;;13.05;99.96
40592;BME280;26301;42.832;23.918;2022-09-12T01:56:20;92958.75;;;13.10;99.89
40592;BME280;26301;42.832;23.918;2022-09-12T01:59:24;92987.28;;;13.15;100.00
40592;BME280;26301;42.832;23.918;2022-09-12T02:05:00;92968.75;;;12.86;100.00
40592;BME280;26301;42.832;23.918;2022-09-12T02:07:37;92966.38;;;12.74;100.00
40592;BME280;26301;42.832;23.918;2022-09-12T02:10:11;92952.34;;;12.65;100.00
40592;BME280;26301;42.832;23.918;2022-09-12T02:12:43;92976.50;;;12.81;100.00
40592;BME280;26301;42.832;23.918;2022-09-12T02:15:12;92964.00;;;12.68;100.00
40592;BME280;26301;42.832;23.918;2022-09-12T02:17:47;92979.78;;;12.66;100.00
40592;BME280;26301;42.832;23.918;2022-09-12T02:20:21;92958.75;;;12.52;100.00
40592;BME280;26301;42.832;23.918;2022-09-12T02:22:49;92976.13;;;12.57;100.00
40592;BME280;26301;42.832;23.918;2022-09-12T02:25:18;92980.06;;;12.65;100.00
40592;BME280;26301;42.832;23.918;2022-09-12T02:30:16;92969.06;;;12.47;100.00
40592;BME280;26301;42.832;23.918;2022-09-12T02:33:12;92981.78;;;12.49;100.00
40592;BME280;26301;42.832;23.918;2022-09-12T02:35:52;92982.25;;;12.41;100.00
40592;BME280;26301;42.832;23.918;2022-09-12T02:38:29;92959.13;;;12.29;100.00
40592;BME280;26301;42.832;23.918;2022-09-12T02:40:58;92977.56;;;12.38;100.00
40592;BME280;26301;42.832;23.918;2022-09-12T02:43:24;92977.06;;;12.41;100.00
40592;BME280;26301;42.832;23.918;2022-09-12T02:45:50;92977.13;;;12.46;100.00
40592;BME280;26301;42.832;23.918;2022-09-12T02:48:26;92987.25;;;12.52;100.00
40592;BME280;26301;42.832;23.918;2022-09-12T02:50:53;92965.44;;;12.43;100.00
40592;BME280;26301;42.832;23.918;2022-09-12T02:53:19;92993.53;;;12.62;100.00
40592;BME280;26301;42.832;23.918;2022-09-12T02:55:45;92977.47;;;12.65;100.00
40592;BME280;26301;42.832;23.918;2022-09-12T02:58:16;92966.84;;;12.61;100.00
40592;BME280;26301;42.832;23.918;2022-09-12T03:06:25;92985.47;;;12.58;100.00
40592;BME280;26301;42.832;23.918;2022-09-12T03:09:09;92985.72;;;12.56;100.00
40592;BME280;26301;42.832;23.918;2022-09-12T03:12:18;92993.28;;;12.68;100.00
40592;BME280;26301;42.832;23.918;2022-09-12T03:20:18;92986.06;;;12.70;100.00
40592;BME280;26301;42.832;23.918;2022-09-12T03:23:01;92994.06;;;12.69;100.00
40592;BME280;26301;42.832;23.918;2022-09-12T03:26:02;92975.13;;;12.63;100.00
40592;BME280;26301;42.832;23.918;2022-09-12T03:28:32;92987.03;;;12.59;100.00
40592;BME280;26301;42.832;23.918;2022-09-12T03:30:59;92967.63;;;12.24;100.00
40592;BME280;26301;42.832;23.918;2022-09-12T03:33:25;92966.28;;;12.17;100.00
40592;BME280;26301;42.832;23.918;2022-09-12T03:35:53;92986.63;;;12.35;100.00
40592;BME280;26301;42.832;23.918;2022-09-12T03:38:20;92985.34;;;12.38;100.00
40592;BME280;26301;42.832;23.918;2022-09-12T03:40:46;92990.75;;;12.36;100.00
40592;BME280;26301;42.832;23.918;2022-09-12T03:43:13;92989.75;;;12.37;100.00
40592;BME280;26301;42.832;23.918;2022-09-12T03:45:39;92961.84;;;12.12;100.00
40592;BME280;26301;42.832;23.918;2022-09-12T03:48:06;92986.50;;;12.20;100.00
40592;BME280;26301;42.832;23.918;2022-09-12T03:50:33;92982.81;;;12.10;100.00
40592;BME280;26301;42.832;23.918;2022-09-12T03:52:59;92970.81;;;11.99;100.00
40592;BME280;26301;42.832;23.918;2022-09-12T03:55:25;92989.47;;;12.01;100.00
40592;BME280;26301;42.832;23.918;2022-09-12T03:57:53;92993.28;;;11.94;100.00
40592;BME280;26301;42.832;23.918;2022-09-12T04:00:19;92970.13;;;11.82;100.00
40592;BME280;26301;42.832;23.918;2022-09-12T04:02:45;92930.50;;;11.44;100.00
40592;BME280;26301;42.832;23.918;2022-09-12T04:05:11;92992.13;;;11.79;100.00
40592;BME280;26301;42.832;23.918;2022-09-12T04:07:37;92983.72;;;11.67;100.00
40592;BME280;26301;42.832;23.918;2022-09-12T04:10:10;92986.78;;;11.64;100.00
40592;BME280;26301;42.832;23.918;2022-09-12T04:12:36;92987.00;;;11.57;100.00
40592;BME280;26301;42.832;23.918;2022-09-12T04:15:04;92987.53;;;11.59;100.00
40592;BME280;26301;42.832;23.918;2022-09-12T04:17:33;92992.28;;;11.67;100.00
40592;BME280;26301;42.832;23.918;2022-09-12T04:19:59;92998.47;;;11.66;100.00
40592;BME280;26301;42.832;23.918;2022-09-12T04:22:26;92988.59;;;11.63;100.00
40592;BME280;26301;42.832;23.918;2022-09-12T04:24:52;92968.09;;;11.57;100.00
40592;BME280;26301;42.832;23.918;2022-09-12T04:27:18;92977.00;;;11.66;100.00
40592;BME280;26301;42.832;23.918;2022-09-12T04:29:44;92995.94;;;11.72;100.00
40592;BME280;26301;42.832;23.918;2022-09-12T04:32:10;93006.34;;;11.77;100.00
40592;BME280;26301;42.832;23.918;2022-09-12T04:34:36;92993.28;;;11.66;100.00
40592;BME280;26301;42.832;23.918;2022-09-12T04:37:06;93003.19;;;11.75;100.00
40592;BME280;26301;42.832;23.918;2022-09-12T04:39:32;92986.50;;;11.60;100.00
40592;BME280;26301;42.832;23.918;2022-09-12T04:41:58;93012.50;;;11.71;100.00
40592;BME280;26301;42.832;23.918;2022-09-12T04:44:24;93009.09;;;11.70;100.00
40592;BME280;26301;42.832;23.918;2022-09-12T04:46:50;93014.81;;;11.72;100.00
40592;BME280;26301;42.832;23.918;2022-09-12T04:49:17;93020.19;;;11.65;100.00
40592;BME280;26301;42.832;23.918;2022-09-12T04:51:46;93013.94;;;11.61;100.00
40592;BME280;26301;42.832;23.918;2022-09-12T04:54:15;92993.91;;;11.52;100.00
40592;BME280;26301;42.832;23.918;2022-09-12T04:56:43;93020.38;;;11.59;100.00
40592;BME280;26301;42.832;23.918;2022-09-12T04:59:10;93000.34;;;11.49;100.00
40592;BME280;26301;42.832;23.918;2022-09-12T05:01:37;93021.72;;;11.61;100.00
40592;BME280;26301;42.832;23.918;2022-09-12T05:04:03;93015.00;;;11.65;100.00
40592;BME280;26301;42.832;23.918;2022-09-12T05:06:31;93016.72;;;11.55;100.00
40592;BME280;26301;42.832;23.918;2022-09-12T05:08:58;93019.13;;;11.61;100.00
40592;BME280;26301;42.832;23.918;2022-09-12T05:11:29;93004.59;;;11.60;100.00
40592;BME280;26301;42.832;23.918;2022-09-12T05:13:56;93025.72;;;11.74;100.00
40592;BME280;26301;42.832;23.918;2022-09-12T05:16:24;93021.53;;;11.73;100.00
40592;BME280;26301;42.832;23.918;2022-09-12T05:18:51;93025.59;;;11.86;100.00
40592;BME280;26301;42.832;23.918;2022-09-12T05:21:19;93018.34;;;11.88;100.00
40592;BME280;26301;42.832;23.918;2022-09-12T05:23:58;93008.34;;;11.97;100.00
40592;BME280;26301;42.832;23.918;2022-09-12T05:26:26;93019.63;;;12.18;100.00
40592;BME280;26301;42.832;23.918;2022-09-12T05:28:53;93005.19;;;12.27;100.00
40592;BME280;26301;42.832;23.918;2022-09-12T05:31:24;93020.94;;;12.52;100.00
40592;BME280;26301;42.832;23.918;2022-09-12T05:33:51;93016.78;;;12.56;100.00
40592;BME280;26301;42.832;23.918;2022-09-12T05:36:23;93013.53;;;12.71;100.00
40592;BME280;26301;42.832;23.918;2022-09-12T05:38:57;92939.47;;;12.33;100.00
40592;BME280;26301;42.832;23.918;2022-09-12T05:41:29;92990.50;;;12.80;100.00
40592;BME280;26301;42.832;23.918;2022-09-12T05:43:57;93006.16;;;13.05;100.00
40592;BME280;26301;42.832;23.918;2022-09-12T05:46:25;93016.09;;;13.19;100.00
40592;BME280;26301;42.832;23.918;2022-09-12T05:48:52;93007.31;;;13.25;100.00
40592;BME280;26301;42.832;23.918;2022-09-12T05:51:31;92999.84;;;13.34;100.00
40592;BME280;26301;42.832;23.918;2022-09-12T05:54:00;92938.50;;;13.07;100.00
40592;BME280;26301;42.832;23.918;2022-09-12T05:56:29;92994.69;;;13.59;100.00
40592;BME280;26301;42.832;23.918;2022-09-12T05:59:00;93004.84;;;13.66;100.00
40592;BME280;26301;42.832;23.918;2022-09-12T06:01:28;92985.38;;;13.63;100.00
40592;BME280;26301;42.832;23.918;2022-09-12T06:03:56;92991.38;;;13.84;100.00
40592;BME280;26301;42.832;23.918;2022-09-12T06:06:26;92992.66;;;14.07;100.00
40592;BME280;26301;42.832;23.918;2022-09-12T06:08:56;92986.97;;;14.21;100.00
40592;BME280;26301;42.832;23.918;2022-09-12T06:11:25;92981.50;;;14.22;100.00
40592;BME280;26301;42.832;23.918;2022-09-12T06:13:52;92996.03;;;14.49;100.00
40592;BME280;26301;42.832;23.918;2022-09-12T06:16:21;92990.34;;;14.36;100.00
40592;BME280;26301;42.832;23.918;2022-09-12T06:18:48;92989.81;;;14.39;100.00
40592;BME280;26301;42.832;23.918;2022-09-12T06:21:15;93004.34;;;14.66;100.00
40592;BME280;26301;42.832;23.918;2022-09-12T06:24:42;93002.44;;;14.97;100.00
40592;BME280;26301;42.832;23.918;2022-09-12T06:26:55;93006.84;;;15.12;100.00
40592;BME280;26301;42.832;23.918;2022-09-12T06:29:21;92982.94;;;15.05;100.00
40592;BME280;26301;42.832;23.918;2022-09-12T06:31:47;92990.16;;;15.23;99.04
40592;BME280;26301;42.832;23.918;2022-09-12T06:34:15;92996.88;;;15.29;85.90
40592;BME280;26301;42.832;23.918;2022-09-12T06:36:46;93010.50;;;15.66;83.95
40592;BME280;26301;42.832;23.918;2022-09-12T06:39:18;93010.78;;;15.59;79.27
40592;BME280;26301;42.832;23.918;2022-09-12T06:41:44;93010.75;;;15.69;78.23
40592;BME280;26301;42.832;23.918;2022-09-12T06:44:18;93008.50;;;15.97;83.78
40592;BME280;26301;42.832;23.918;2022-09-12T06:46:45;92987.00;;;16.15;89.67
40592;BME280;26301;42.832;23.918;2022-09-12T06:49:16;93007.53;;;16.56;87.94
40592;BME280;26301;42.832;23.918;2022-09-12T06:51:42;93000.81;;;16.79;82.87
40592;BME280;26301;42.832;23.918;2022-09-12T06:54:08;92988.28;;;16.81;79.24
40592;BME280;26301;42.832;23.918;2022-09-12T06:56:36;93009.06;;;17.16;81.28
40592;BME280;26301;42.832;23.918;2022-09-12T06:59:02;92985.28;;;17.17;82.71
40592;BME280;26301;42.832;23.918;2022-09-12T07:01:30;92995.72;;;17.17;74.49
40592;BME280;26301;42.832;23.918;2022-09-12T07:03:58;93016.09;;;17.39;72.61
40592;BME280;26301;42.832;23.918;2022-09-12T07:06:26;93020.25;;;17.40;78.13
40592;BME280;26301;42.832;23.918;2022-09-12T07:09:03;93019.00;;;17.56;77.66
40592;BME280;26301;42.832;23.918;2022-09-12T07:11:35;93004.34;;;17.60;77.40
40592;BME280;26301;42.832;23.918;2022-09-12T07:14:02;93025.13;;;17.90;77.21
40592;BME280;26301;42.832;23.918;2022-09-12T07:16:34;93022.06;;;18.01;77.30
40592;BME280;26301;42.832;23.918;2022-09-12T07:19:01;93030.41;;;18.03;73.77
40592;BME280;26301;42.832;23.918;2022-09-12T07:21:30;93002.78;;;18.16;77.50
40592;BME280;26301;42.832;23.918;2022-09-12T07:23:56;92980.84;;;18.17;69.04
40592;BME280;26301;42.832;23.918;2022-09-12T07:26:25;93023.75;;;18.63;66.64
40592;BME280;26301;42.832;23.918;2022-09-12T07:28:52;93013.66;;;18.56;63.47
40592;BME280;26301;42.832;23.918;2022-09-12T07:31:26;93019.38;;;18.58;67.22
40592;BME280;26301;42.832;23.918;2022-09-12T07:33:52;93014.06;;;18.63;67.84
40592;BME280;26301;42.832;23.918;2022-09-12T07:36:20;93006.50;;;18.62;65.48
40592;BME280;26301;42.832;23.918;2022-09-12T07:38:47;93019.16;;;18.73;59.59
40592;BME280;26301;42.832;23.918;2022-09-12T07:41:16;93009.19;;;18.76;59.62
40592;BME280;26301;42.832;23.918;2022-09-12T07:43:42;93028.78;;;19.06;60.47
40592;BME280;26301;42.832;23.918;2022-09-12T07:46:12;93025.69;;;19.31;63.27
40592;BME280;26301;42.832;23.918;2022-09-12T07:48:39;93027.53;;;19.45;60.86
40592;BME280;26301;42.832;23.918;2022-09-12T07:51:10;93006.09;;;19.42;55.93
40592;BME280;26301;42.832;23.918;2022-09-12T07:53:42;93027.50;;;19.58;58.60
40592;BME280;26301;42.832;23.918;2022-09-12T07:56:10;93004.06;;;19.53;55.49
40592;BME280;26301;42.832;23.918;2022-09-12T07:58:39;93011.63;;;19.00;55.68
40592;BME280;26301;42.832;23.918;2022-09-12T08:01:07;93031.31;;;19.25;60.84
40592;BME280;26301;42.832;23.918;2022-09-12T08:03:36;93002.91;;;19.32;59.20
40592;BME280;26301;42.832;23.918;2022-09-12T08:06:07;93013.69;;;19.44;56.94
40592;BME280;26301;42.832;23.918;2022-09-12T08:08:33;93027.94;;;19.38;55.08
40592;BME280;26301;42.832;23.918;2022-09-12T08:11:01;93011.63;;;19.00;54.95
40592;BME280;26301;42.832;23.918;2022-09-12T08:13:28;93030.91;;;18.90;54.39
40592;BME280;26301;42.832;23.918;2022-09-12T08:16:03;93013.06;;;18.78;55.37
40592;BME280;26301;42.832;23.918;2022-09-12T08:18:30;93004.78;;;18.71;58.78
40592;BME280;26301;42.832;23.918;2022-09-12T08:21:02;93008.41;;;18.75;59.45
40592;BME280;26301;42.832;23.918;2022-09-12T08:23:28;93021.81;;;19.01;58.98
40592;BME280;26301;42.832;23.918;2022-09-12T08:25:55;93017.44;;;19.10;60.48
40592;BME280;26301;42.832;23.918;2022-09-12T08:28:22;93014.53;;;19.39;61.88
40592;BME280;26301;42.832;23.918;2022-09-12T08:30:48;92997.06;;;19.49;56.58
40592;BME280;26301;42.832;23.918;2022-09-12T08:33:14;93007.47;;;19.68;53.38
40592;BME280;26301;42.832;23.918;2022-09-12T08:35:40;92984.44;;;19.78;54.72
40592;BME280;26301;42.832;23.918;2022-09-12T08:38:12;92990.16;;;19.80;58.73
40592;BME280;26301;42.832;23.918;2022-09-12T08:40:49;92983.88;;;19.68;57.19
40592;BME280;26301;42.832;23.918;2022-09-12T08:43:29;92999.88;;;20.02;57.12
40592;BME280;26301;42.832;23.918;2022-09-12T08:46:05;93003.41;;;20.20;53.71
40592;BME280;26301;42.832;23.918;2022-09-12T08:48:32;92926.50;;;19.30;53.48
40592;BME280;26301;42.832;23.918;2022-09-12T08:50:59;93003.50;;;19.15;52.53
40592;BME280;26301;42.832;23.918;2022-09-12T08:53:27;92998.50;;;18.72;54.52
40592;BME280;26301;42.832;23.918;2022-09-12T08:55:58;93005.47;;;18.30;56.55
40592;BME280;26301;42.832;23.918;2022-09-12T08:58:27;92991.78;;;18.00;58.30
40592;BME280;26301;42.832;23.918;2022-09-12T09:04:03;93015.94;;;17.92;58.96
40592;BME280;26301;42.832;23.918;2022-09-12T09:12:41;93009.56;;;17.98;61.41
40592;BME280;26301;42.832;23.918;2022-09-12T09:18:04;93007.97;;;17.83;60.66
40592;BME280;26301;42.832;23.918;2022-09-12T09:21:13;93014.25;;;17.82;60.47
40592;BME280;26301;42.832;23.918;2022-09-12T09:23:45;93013.75;;;17.80;61.81
40592;BME280;26301;42.832;23.918;2022-09-12T09:26:28;92989.03;;;17.73;62.90
40592;BME280;26301;42.832;23.918;2022-09-12T09:28:58;93015.88;;;17.97;63.32
40592;BME280;26301;42.832;23.918;2022-09-12T09:31:27;92987.91;;;17.79;62.17
40592;BME280;26301;42.832;23.918;2022-09-12T09:33:55;92990.72;;;18.01;63.20
40592;BME280;26301;42.832;23.918;2022-09-12T09:36:50;92977.59;;;18.39;68.32
40592;BME280;26301;42.832;23.918;2022-09-12T09:44:20;92981.47;;;18.88;58.81
40592;BME280;26301;42.832;23.918;2022-09-12T09:46:48;92954.44;;;19.07;56.71
40592;BME280;26301;42.832;23.918;2022-09-12T09:49:15;92950.47;;;19.09;57.49
40592;BME280;26301;42.832;23.918;2022-09-12T09:51:41;92956.66;;;19.41;58.58
40592;BME280;26301;42.832;23.918;2022-09-12T09:54:20;92952.59;;;19.21;55.90
40592;BME280;26301;42.832;23.918;2022-09-12T09:56:47;92947.34;;;19.21;53.69
40592;BME280;26301;42.832;23.918;2022-09-12T09:59:26;92969.94;;;19.03;54.27
40592;BME280;26301;42.832;23.918;2022-09-12T10:01:54;92964.97;;;18.74;55.99
40592;BME280;26301;42.832;23.918;2022-09-12T10:04:24;92974.41;;;18.75;57.06
40592;BME280;26301;42.832;23.918;2022-09-12T10:06:56;92986.44;;;18.57;55.47
40592;BME280;26301;42.832;23.918;2022-09-12T10:09:30;92976.13;;;18.80;59.42
40592;BME280;26301;42.832;23.918;2022-09-12T10:12:18;92953.47;;;18.75;61.80
40592;BME280;26301;42.832;23.918;2022-09-12T10:14:56;92979.34;;;18.90;54.57
40592;BME280;26301;42.832;23.918;2022-09-12T10:17:51;92956.00;;;18.94;56.75
40592;BME280;26301;42.832;23.918;2022-09-12T10:20:33;92974.41;;;18.89;55.38
40592;BME280;26301;42.832;23.918;2022-09-12T10:23:01;92948.44;;;18.92;56.62
40592;BME280;26301;42.832;23.918;2022-09-12T10:25:28;92932.81;;;19.01;55.83
40592;BME280;26301;42.832;23.918;2022-09-12T10:27:58;92943.38;;;19.10;54.61
40592;BME280;26301;42.832;23.918;2022-09-12T10:30:25;92952.50;;;18.99;55.67
40592;BME280;26301;42.832;23.918;2022-09-12T10:32:56;92967.53;;;19.07;55.46
40592;BME280;26301;42.832;23.918;2022-09-12T10:35:28;92971.50;;;19.18;56.06
40592;BME280;26301;42.832;23.918;2022-09-12T10:38:16;92953.25;;;19.40;57.70
40592;BME280;26301;42.832;23.918;2022-09-12T10:40:42;92953.34;;;19.35;55.22
40592;BME280;26301;42.832;23.918;2022-09-12T10:43:28;92965.28;;;19.41;55.55
40592;BME280;26301;42.832;23.918;2022-09-12T10:45:58;92953.75;;;19.29;57.55
40592;BME280;26301;42.832;23.918;2022-09-12T10:48:27;92961.28;;;19.44;54.03
40592;BME280;26301;42.832;23.918;2022-09-12T10:50:53;92952.59;;;19.35;54.08
40592;BME280;26301;42.832;23.918;2022-09-12T10:53:38;92949.19;;;19.21;54.97
40592;BME280;26301;42.832;23.918;2022-09-12T10:56:22;92971.28;;;19.28;57.33
40592;BME280;26301;42.832;23.918;2022-09-12T11:01:35;92972.94;;;19.24;57.91
40592;BME280;26301;42.832;23.918;2022-09-12T11:07:39;92975.06;;;19.22;57.03
40592;BME280;26301;42.832;23.918;2022-09-12T11:18:52;92916.34;;;18.73;54.92
40592;BME280;26301;42.832;23.918;2022-09-12T11:39:55;92971.66;;;18.34;58.01
40592;BME280;26301;42.832;23.918;2022-09-12T11:42:36;92948.78;;;17.93;56.70
40592;BME280;26301;42.832;23.918;2022-09-12T11:45:17;92975.94;;;18.11;56.45
40592;BME280;26301;42.832;23.918;2022-09-12T11:47:51;92968.28;;;18.00;57.80
40592;BME280;26301;42.832;23.918;2022-09-12T11:50:25;92958.88;;;17.99;59.82
40592;BME280;26301;42.832;23.918;2022-09-12T11:52:57;92967.84;;;18.12;60.57
40592;BME280;26301;42.832;23.918;2022-09-12T11:55:28;92972.31;;;18.25;60.07
40592;BME280;26301;42.832;23.918;2022-09-12T11:57:57;92966.25;;;18.30;60.20
40592;BME280;26301;42.832;23.918;2022-09-12T12:06:11;92924.41;;;18.30;63.65
40592;BME280;26301;42.832;23.918;2022-09-12T12:08:41;92966.03;;;18.59;59.73
40592;BME280;26301;42.832;23.918;2022-09-12T12:11:23;92967.84;;;18.59;57.97
40592;BME280;26301;42.832;23.918;2022-09-12T12:13:54;92947.50;;;18.56;59.61
40592;BME280;26301;42.832;23.918;2022-09-12T12:16:33;92950.63;;;18.71;61.78
40592;BME280;26301;42.832;23.918;2022-09-12T12:19:31;92967.94;;;18.86;56.63
40592;BME280;26301;42.832;23.918;2022-09-12T12:22:13;92957.69;;;18.71;57.72
40592;BME280;26301;42.832;23.918;2022-09-12T12:27:49;92971.59;;;18.85;58.62
40592;BME280;26301;42.832;23.918;2022-09-12T12:43:51;92966.81;;;18.27;56.48
40592;BME280;26301;42.832;23.918;2022-09-12T12:46:22;92970.47;;;18.26;58.02
40592;BME280;26301;42.832;23.918;2022-09-12T12:52:13;92962.75;;;18.35;60.59
40592;BME280;26301;42.832;23.918;2022-09-12T12:57:18;92948.91;;;18.20;59.18
40592;BME280;26301;42.832;23.918;2022-09-12T13:00:00;92937.63;;;18.20;60.67
40592;BME280;26301;42.832;23.918;2022-09-12T13:02:39;92957.75;;;18.38;58.69
40592;BME280;26301;42.832;23.918;2022-09-12T13:05:21;92972.50;;;18.48;59.68
40592;BME280;26301;42.832;23.918;2022-09-12T13:11:15;92960.81;;;18.73;59.28
40592;BME280;26301;42.832;23.918;2022-09-12T13:16:11;92957.94;;;18.75;59.49
40592;BME280;26301;42.832;23.918;2022-09-12T13:18:56;92963.56;;;18.82;55.03
40592;BME280;26301;42.832;23.918;2022-09-12T13:21:26;92959.75;;;18.74;55.10
40592;BME280;26301;42.832;23.918;2022-09-12T13:23:59;92940.16;;;18.71;54.95
40592;BME280;26301;42.832;23.918;2022-09-12T13:26:34;92933.56;;;18.60;54.49
40592;BME280;26301;42.832;23.918;2022-09-12T13:29:20;92911.38;;;18.58;54.76
40592;BME280;26301;42.832;23.918;2022-09-12T13:31:55;92950.56;;;18.90;55.79
40592;BME280;26301;42.832;23.918;2022-09-12T13:34:26;92958.72;;;19.03;55.74
40592;BME280;26301;42.832;23.918;2022-09-12T13:39:38;92948.63;;;18.82;57.17
40592;BME280;26301;42.832;23.918;2022-09-12T13:42:46;92964.31;;;18.82;57.34
40592;BME280;26301;42.832;23.918;2022-09-12T13:45:14;92966.59;;;18.70;56.95
40592;BME280;26301;42.832;23.918;2022-09-12T13:47:48;92959.09;;;18.49;57.55
40592;BME280;26301;42.832;23.918;2022-09-12T13:50:24;92944.69;;;18.38;57.97
40592;BME280;26301;42.832;23.918;2022-09-12T13:52:59;92959.88;;;18.36;60.12
40592;BME280;26301;42.832;23.918;2022-09-12T13:55:32;92961.28;;;18.28;58.25
40592;BME280;26301;42.832;23.918;2022-09-12T13:58:22;92956.06;;;18.28;59.91
40592;BME280;26301;42.832;23.918;2022-09-12T14:00:45;92963.78;;;18.20;59.33
40592;BME280;26301;42.832;23.918;2022-09-12T14:03:27;92963.69;;;18.11;59.36
40592;BME280;26301;42.832;23.918;2022-09-12T14:06:11;92974.22;;;18.20;59.87
40592;BME280;26301;42.832;23.918;2022-09-12T14:08:39;92966.56;;;18.10;58.91
40592;BME280;26301;42.832;23.918;2022-09-12T14:11:22;92952.41;;;18.11;59.64
40592;BME280;26301;42.832;23.918;2022-09-12T14:13:49;92961.47;;;18.18;59.67
40592;BME280;26301;42.832;23.918;2022-09-12T14:16:15;92962.81;;;18.16;60.62
40592;BME280;26301;42.832;23.918;2022-09-12T14:18:41;92942.84;;;18.06;60.56
40592;BME280;26301;42.832;23.918;2022-09-12T14:21:15;92962.03;;;18.15;58.27
40592;BME280;26301;42.832;23.918;2022-09-12T14:23:47;92965.66;;;18.00;60.63
40592;BME280;26301;42.832;23.918;2022-09-12T14:26:13;92947.41;;;17.81;59.51
40592;BME280;26301;42.832;23.918;2022-09-12T14:28:43;92952.81;;;17.85;60.81
40592;BME280;26301;42.832;23.918;2022-09-12T14:33:48;92952.25;;;17.88;58.33
40592;BME280;26301;42.832;23.918;2022-09-12T14:39:00;92968.53;;;17.99;62.11
40592;BME280;26301;42.832;23.918;2022-09-12T14:41:29;92976.38;;;17.99;59.52
40592;BME280;26301;42.832;23.918;2022-09-12T14:44:01;92962.56;;;17.79;59.66
40592;BME280;26301;42.832;23.918;2022-09-12T14:46:34;92949.34;;;17.71;60.18
40592;BME280;26301;42.832;23.918;2022-09-12T14:49:15;92968.13;;;17.92;62.32
40592;BME280;26301;42.832;23.918;2022-09-12T14:51:55;92966.50;;;17.96;62.92
40592;BME280;26301;42.832;23.918;2022-09-12T14:57:00;92971.97;;;17.99;62.37
40592;BME280;26301;42.832;23.918;2022-09-12T14:59:36;92967.69;;;18.03;62.89
40592;BME280;26301;42.832;23.918;2022-09-12T15:04:51;92977.34;;;18.22;62.57
40592;BME280;26301;42.832;23.918;2022-09-12T15:07:32;92968.94;;;18.25;65.05
40592;BME280;26301;42.832;23.918;2022-09-12T15:10:00;92945.00;;;18.18;62.96
40592;BME280;26301;42.832;23.918;2022-09-12T15:12:27;92959.44;;;18.29;66.48
40592;BME280;26301;42.832;23.918;2022-09-12T15:14:58;92967.84;;;18.45;67.81
40592;BME280;26301;42.832;23.918;2022-09-12T15:17:25;92952.03;;;18.36;66.98
40592;BME280;26301;42.832;23.918;2022-09-12T15:19:50;92970.25;;;18.41;63.66
40592;BME280;26301;42.832;23.918;2022-09-12T15:22:17;92968.59;;;18.45;63.57
40592;BME280;26301;42.832;23.918;2022-09-12T15:24:43;92959.41;;;18.48;66.24
40592;BME280;26301;42.832;23.918;2022-09-12T15:27:11;92941.50;;;18.41;69.83
40592;BME280;26301;42.832;23.918;2022-09-12T15:29:37;92962.84;;;18.62;71.02
40592;BME280;26301;42.832;23.918;2022-09-12T15:32:04;92955.94;;;18.66;70.74